Airfield :
LOGIN :

Register | Disclaimer

   EN    FR    IT 

 










Legend :    VFR   Marginal VFR   IFR   Intensive IFR   Very Intensive IFR
Visi :
Ceiling :
>= 8 km
>= 3000ft
5 to 8 km
1000 to 3000 ft
1500m to 5 km
500 to 1000 ft
800 to 1500m
200 to 500 ft
< 800m
< 200 ft
Symbols :   Thunderstorms  Fog  Heavy snow  Heavy precipitations  Wind > 20 kt
SIGMETs :     Misc.  Thunderstorms  Icing  Turbulence  Mountain Waves  Volcanic Ashes






- Airport Elevation : -11 ft
- IATA code : AMS


EHAM - Amsterdam Schiphol

CURRENT METAR :
  • 181055Z 06011KT 020V100 CAVOK 24/20 Q1012 NOSIG

EXPIRED METARs :
  • 181025Z 08011KT 040V120 CAVOK 24/19 Q1012 NOSIG
  • 180955Z 07010KT 050V110 CAVOK 24/19 Q1012 NOSIG
  • 180925Z 06008KT CAVOK 23/20 Q1012 NOSIG
  • 180855Z 07007KT 030V110 CAVOK 21/19 Q1013 NOSIG
  • 180825Z 08009KT 050V120 8000 -RA FEW020 20/18 Q1013 NOSIG

TAF TAF EHAM
Valid from the 18 at 06:00 until the 19 at 12:00 UTC


180449Z 1806/1912 06007KT 4000 BR BKN035
PROB30 1806/1808 2800 BKN008
BECMG 1807/1810 6000 NSW SCT020
BECMG 1810/1812 CAVOK
TEMPO 1814/1820 17015KT 3000 TSRAGR BKN060CB
PROB30
TEMPO 1814/1818 18030G40KT 1500 +TSRAGR SCT020 BKN050CB
BECMG 1818/1821 12010KT
BECMG 1821/1824 22010KT BKN018
BECMG 1903/1906 SCT008 BKN012
BECMG 1906/1909 BKN015



MET'MAP, your aeronautical weather chart ! - Copyright ORBIFLY December 2007 - Disclaimer

ORBIFLY MET'MAP TEAM :

Programming & Development : Alexandra Zaïnal
Concept & original design : Baudouin d'Aumeries
Assistance for programming : Marc-Olivier Méhu
Technical & hardware support : Manuel Goepfert

Contact : metmap@orbifly.com




SOURCES & CREDITS :

   NOAA